»·PEaware :: N41585 KALW-KBFI

N41585 :: KALW-KBFI

FLIGHT INFORMATION

Flight Status: Arrived
Operator: Privately registered:
United States
More flights under this callsign
Pilot: Sonny B. (6473)
Aircraft: PIPER PA-28R-201 ARROW
(P28R)
More flights by this aircraft type
Origin: KALW Walla Walla Regl
United States
Destination: KBFI Boeing Field/King Co Intl
United States
More flights between these airports :: More routes between these airports
Route: PSC V204 YKM V4 CHINS CHINS2 KBFI
File this flight plan on PilotEdge
Remarks:
Altitude:
(Current/Filed)
10,000ft
Speed:
(Current/Filed)
150kts
Departed: 10-Oct-17 06:12 PM
Arrived: 10-Oct-17 08:05 PM
Distance/Time
Traveled:
186nm/1:53
Distance/Time
To Go:
Arrived

Flight Plot

Page will automatically refresh every two minutes.

Flight plan parsing failed; only flown route is shown


Map Options




Map Legend


Flown Route
Filed Route
Departure Airport
Arrival Airport
Navaid (VOR, NDB)
Fix

Horizontal Profiles

Position Reports

Time Latitude Longitude Heading Altitude Ground
Speed
10-Oct-17 18:00 46.095171 -118.277330 34 1207ft 0kts
10-Oct-17 18:01 46.095171 -118.277330 34 1207ft 0kts
10-Oct-17 18:02 46.095171 -118.277330 34 1207ft 0kts
10-Oct-17 18:03 46.095171 -118.277330 34 1207ft 0kts
10-Oct-17 18:04 46.095171 -118.277330 34 1207ft 0kts
10-Oct-17 18:05 46.095171 -118.277330 34 1207ft 0kts
10-Oct-17 18:06 46.095171 -118.277330 34 1207ft 0kts
10-Oct-17 18:07 46.095171 -118.277330 34 1207ft 0kts
10-Oct-17 18:08 46.095171 -118.277330 34 1207ft 0kts
10-Oct-17 18:09 46.095171 -118.277330 34 1207ft 0kts
10-Oct-17 18:10 46.095171 -118.277330 34 1207ft 0kts
10-Oct-17 18:11 46.095171 -118.277330 34 1207ft 0kts
10-Oct-17 18:12 46.095171 -118.277330 34 1207ft 0kts
10-Oct-17 18:13 46.097751 -118.276057 10 1207ft 16kts
10-Oct-17 18:14 46.098279 -118.276052 358 1207ft 0kts
10-Oct-17 18:15 46.098279 -118.276052 358 1207ft 0kts
10-Oct-17 18:16 46.099197 -118.276510 303 1207ft 8kts
10-Oct-17 18:17 46.095985 -118.280541 215 1212ft 78kts
10-Oct-17 18:18 46.077714 -118.302997 252 2319ft 96kts
10-Oct-17 18:18 46.081718 -118.332681 281 3337ft 94kts
10-Oct-17 18:20 46.090719 -118.374598 288 4673ft 95kts
10-Oct-17 18:21 46.099703 -118.410647 288 5715ft 97kts
10-Oct-17 18:21 46.106944 -118.441431 287 6546ft 98kts
10-Oct-17 18:22 46.113363 -118.469778 289 7263ft 99kts
10-Oct-17 18:23 46.119468 -118.494083 289 7863ft 100kts
10-Oct-17 18:25 46.129996 -118.538712 287 8917ft 102kts
10-Oct-17 18:25 46.137580 -118.571207 291 9632ft 103kts
10-Oct-17 18:26 46.146390 -118.606403 287 10018ft 131kts
10-Oct-17 18:27 46.152678 -118.634322 289 10010ft 151kts
10-Oct-17 18:28 46.159842 -118.664336 289 10007ft 159kts
10-Oct-17 18:29 46.167190 -118.695128 289 10005ft 162kts
10-Oct-17 18:30 46.174716 -118.725101 290 10005ft 163kts
10-Oct-17 18:31 46.182289 -118.754862 290 10005ft 164kts
10-Oct-17 18:32 46.190244 -118.786104 290 10005ft 164kts
10-Oct-17 18:33 46.197709 -118.815414 290 10005ft 164kts
10-Oct-17 18:34 46.202212 -118.833103 290 10005ft 164kts
10-Oct-17 18:35 46.207362 -118.853334 290 10005ft 164kts
10-Oct-17 18:36 46.215019 -118.883381 290 10005ft 164kts
10-Oct-17 18:37 46.221651 -118.909385 290 10005ft 164kts
10-Oct-17 18:38 46.228724 -118.937094 290 10005ft 164kts
10-Oct-17 18:39 46.237849 -118.973082 289 10004ft 164kts
10-Oct-17 18:40 46.248505 -119.021918 287 10005ft 164kts
10-Oct-17 18:41 46.259880 -119.073326 288 10005ft 164kts
10-Oct-17 18:42 46.271019 -119.122347 288 10005ft 164kts
10-Oct-17 18:43 46.282104 -119.171069 288 10005ft 164kts
10-Oct-17 18:44 46.291246 -119.211210 288 10004ft 164kts
10-Oct-17 18:45 46.298870 -119.244692 288 10004ft 164kts
10-Oct-17 18:46 46.307806 -119.283937 288 10005ft 164kts
10-Oct-17 18:47 46.316980 -119.324223 288 10005ft 164kts
10-Oct-17 18:48 46.326232 -119.364832 288 10005ft 164kts
10-Oct-17 18:49 46.335573 -119.405886 288 10005ft 164kts
10-Oct-17 18:50 46.347168 -119.455438 288 10004ft 164kts
10-Oct-17 18:51 46.358995 -119.505815 288 10005ft 164kts
10-Oct-17 18:52 46.371794 -119.560267 288 10005ft 164kts
10-Oct-17 18:53 46.384049 -119.612392 289 10005ft 164kts
10-Oct-17 18:54 46.396008 -119.663218 289 10005ft 164kts
10-Oct-17 18:55 46.406772 -119.708888 289 10005ft 164kts
10-Oct-17 18:56 46.418027 -119.756611 289 10004ft 164kts
10-Oct-17 18:57 46.430133 -119.807922 289 10005ft 164kts
10-Oct-17 18:58 46.443076 -119.862695 289 10005ft 164kts
10-Oct-17 18:59 46.456575 -119.919716 289 10005ft 164kts
10-Oct-17 19:00 46.469812 -119.977704 287 10005ft 164kts
10-Oct-17 19:01 46.482291 -120.035633 287 10005ft 164kts
10-Oct-17 19:02 46.495005 -120.094670 287 10004ft 164kts
10-Oct-17 19:03 46.506303 -120.147100 287 10005ft 164kts
10-Oct-17 19:04 46.515770 -120.190987 287 10005ft 164kts
10-Oct-17 19:05 46.522933 -120.224170 287 10005ft 164kts
10-Oct-17 19:06 46.530356 -120.258494 287 10005ft 164kts
10-Oct-17 19:07 46.536325 -120.286113 287 10005ft 164kts
10-Oct-17 19:08 46.542541 -120.314896 287 10005ft 164kts
10-Oct-17 19:09 46.550458 -120.351544 287 10004ft 164kts
10-Oct-17 19:10 46.561688 -120.403510 287 10005ft 164kts
10-Oct-17 19:11 46.574744 -120.450890 301 10001ft 164kts
10-Oct-17 19:12 46.594725 -120.493761 304 10005ft 164kts
10-Oct-17 19:13 46.616859 -120.541126 304 10005ft 164kts
10-Oct-17 19:14 46.637497 -120.585246 304 10005ft 164kts
10-Oct-17 19:15 46.660710 -120.634877 304 10005ft 164kts
10-Oct-17 19:16 46.684931 -120.686650 304 10005ft 164kts
10-Oct-17 19:17 46.708896 -120.737839 304 10005ft 164kts
10-Oct-17 19:18 46.728328 -120.779342 304 10005ft 164kts
10-Oct-17 19:19 46.744647 -120.814209 304 10005ft 164kts
10-Oct-17 19:20 46.761886 -120.851065 304 10005ft 164kts
10-Oct-17 19:21 46.780314 -120.890144 305 10005ft 164kts
10-Oct-17 19:22 46.798314 -120.927856 305 10005ft 164kts
10-Oct-17 19:23 46.816639 -120.966242 305 10005ft 164kts
10-Oct-17 19:24 46.834439 -121.003502 305 10005ft 164kts
10-Oct-17 19:25 46.850092 -121.036275 305 10005ft 164kts
10-Oct-17 19:26 46.868065 -121.073870 305 10005ft 164kts
10-Oct-17 19:27 46.893627 -121.127378 304 10005ft 164kts
10-Oct-17 19:28 46.918758 -121.179958 304 10004ft 164kts
10-Oct-17 19:29 46.941623 -121.227804 304 10004ft 164kts
10-Oct-17 19:30 46.958104 -121.262306 304 10004ft 164kts
10-Oct-17 19:31 46.971468 -121.290288 304 10005ft 164kts
10-Oct-17 19:32 46.991666 -121.332544 305 10005ft 164kts
10-Oct-17 19:33 47.013732 -121.378953 304 10004ft 164kts
10-Oct-17 19:34 47.034285 -121.423833 303 10004ft 164kts
10-Oct-17 19:35 47.055157 -121.469942 303 10005ft 164kts
10-Oct-17 19:36 47.074482 -121.512641 303 10005ft 164kts
10-Oct-17 19:37 47.094735 -121.557396 303 10005ft 164kts
10-Oct-17 19:38 47.116945 -121.606466 303 10005ft 164kts
10-Oct-17 19:39 47.136684 -121.650075 303 10005ft 164kts
10-Oct-17 19:40 47.154264 -121.688902 303 10005ft 164kts
10-Oct-17 19:41 47.171628 -121.727253 303 10005ft 164kts
10-Oct-17 19:42 47.190941 -121.769846 304 10005ft 164kts
10-Oct-17 19:43 47.210020 -121.811921 304 10005ft 164kts
10-Oct-17 19:44 47.229978 -121.856439 304 9676ft 166kts
10-Oct-17 19:45 47.248958 -121.899885 305 9047ft 163kts
10-Oct-17 19:47 47.266617 -121.938225 304 8469ft 161kts
10-Oct-17 19:48 47.283312 -121.974059 306 7936ft 160kts
10-Oct-17 19:49 47.299766 -122.007592 305 7438ft 158kts
10-Oct-17 19:50 47.313071 -122.036392 305 7028ft 157kts
10-Oct-17 19:51 47.332047 -122.074281 307 6486ft 156kts
10-Oct-17 19:52 47.356145 -122.127100 302 5774ft 155kts
10-Oct-17 19:53 47.378959 -122.180461 299 5097ft 153kts
10-Oct-17 19:54 47.402935 -122.232071 302 4399ft 151kts
10-Oct-17 19:55 47.424571 -122.285015 300 3702ft 150kts
10-Oct-17 19:56 47.454294 -122.323175 350 2934ft 151kts
10-Oct-17 19:57 47.494604 -122.335440 346 2230ft 149kts
10-Oct-17 19:58 47.532326 -122.353460 341 2211ft 139kts
10-Oct-17 19:59 47.569022 -122.370003 343 2211ft 137kts
10-Oct-17 20:00 47.605519 -122.386357 343 2211ft 137kts
10-Oct-17 20:01 47.641990 -122.402707 343 2211ft 137kts
10-Oct-17 20:02 47.671513 -122.433875 297 2211ft 137kts
10-Oct-17 20:03 47.678245 -122.484407 220 2202ft 137kts
10-Oct-17 20:04 47.651530 -122.458934 107 2210ft 136kts
10-Oct-17 20:05 47.639556 -122.405556 109 2211ft 137kts
10-Oct-17 20:06 47.611888 -122.367779 144 1868ft 134kts
10-Oct-17 20:07 47.580370 -122.343236 161 977ft 119kts
10-Oct-17 20:08 47.553903 -122.322250 147 310ft 101kts
10-Oct-17 20:09 47.534743 -122.306398 150 22ft 53kts
10-Oct-17 20:10 47.530483 -122.301855 72 22ft 0kts
10-Oct-17 20:11 47.530913 -122.300526 62 22ft 0kts
10-Oct-17 20:12 47.530913 -122.300526 62 22ft 0kts
10-Oct-17 20:13 47.529715 -122.299222 151 22ft 0kts

Navigation Log

Ident Type
Flight plan parsing failed, navigation log unavailable